AirNav   Free Bose QuietComfort 20
 
 1249 users online  

6MI8 Omans Heliport
Almont, Michigan, USA

GOING TO ALMONT?


FAA INFORMATION EFFECTIVE 05 DECEMBER 2019

Location

FAA Identifier: 6MI8
Lat/Long: 42-55-08.1000N 083-03-42.7600W
42-55.135000N 083-03.712667W
42.9189167,-83.0618778
(estimated)
Elevation: 865 ft. / 264 m (estimated)
Variation: 06W (1990)
From city: 1 mile W of ALMONT, MI
Time zone: UTC -5 (UTC -4 during Daylight Saving Time)
Zip code: 48003

Heliport Operations

Heliport use: Private use. Permission required prior to landing
Activation date: 12/1992
Control tower: no
ARTCC: CLEVELAND CENTER
FSS: LANSING FLIGHT SERVICE STATION
Attendance: UNATNDD
Segmented circle: no

Heliport Communications

WX AWOS-3P at D95 (13 nm NW): 134.050 (810-664-5038)

Nearby radio navigation aids

VOR radial/distance  VOR name  Freq  Var
FNTr101/30.2FLINT VORTAC116.9006W
SVMr040/38.6SALEM VORTAC114.3003W

Heliport Services

Runway Information

Helipad H1

Dimensions: 20 x 20 ft. / 6 x 6 m
Surface: concrete
Traffic pattern: leftleft

Heliport Ownership and Management from official FAA records

Ownership: Privately-owned
Owner: THOMAS G. OMANS
7090 GENERAL SQUIRE
ALMONT, MI 48003
Phone 313-264-4646
Manager: THOMAS G. OMANS
7090 GENERAL SQUIRE
ALMONT, MI 48003
Phone 313-798-3369

Additional Remarks

A52-H1 70 FT TREES 400 FT EAST & 40 FT POLES 100 FT SOUTHEAST OF HELIPAD.
FOR CD CTC CLEVELAND ARTCC AT 440-774-0490.

Instrument Procedures

There are no published instrument procedures at 6MI8.

Some nearby airports with instrument procedures:

D98 - Romeo State Airport (8 nm SE)
D95 - Dupont-Lapeer Airport (13 nm NW)
57D - Ray Community Airport (13 nm SE)
KMTC - Selfridge Air National Guard Base (21 nm SE)
KPTK - Oakland County International Airport (22 nm SW)
 
Loc | Ops | Rwys | IFR | FBO | Links
Com | Nav | Svcs | Stats | Notes
Area around 6MI8 (Omans Heliport)
 
Road maps at: MapQuest Bing Google
 
Aerial photo
No photo
 
Sectional chart

 
Airport distance calculator
Flying to Omans Heliport? Find the distance to fly.

From to 6MI8

Sunrise and sunset
Times for 07-Dec-2019
 Local
(UTC-5)
 Zulu
(UTC)
Morning civil twilight07:1912:19
Sunrise07:5112:51
Sunset16:5721:57
Evening civil twilight17:2922:29

Current date and time
Zulu (UTC)  08-Dec-2019 02:45:15
Local (UTC-5)  07-Dec-2019 21:45:15
 
METAR
KD95 
13nm NW 
080236Z AUTO 16005KT 10SM CLR M02/M07 A3028 RMK AO2 T10171066
KMTC 
21nm SE 
080155Z 17007KT 12SM SCT100 BKN200 M02/M03 A3031 RMK AO2A SLP277 T10241028
KPTK 
22nm SW 
080153Z 18005KT 10SM FEW070 BKN100 BKN220 M01/M06 A3028 RMK AO2 SLP268 T10111061
KVLL 
23nm S 
080236Z AUTO 17004KT 10SM BKN075 OVC100 00/M04 A3032 RMK AO2 T10011037
KPHN 
24nm E 
080235Z AUTO 17003KT 10SM CLR M03/M06 A3031 RMK AO2
TAF
KMTC 
21nm SE 
080100Z 0801/0907 18009KT 9999 FEW060 BKN100 QNH3006INS BECMG 0813/0814 21020G25KT 9999 SCT010 BKN100 QNH2994INS BECMG 0821/0822 21012KT 9000 -RA SCT007 OVC010 QNH2991INS BECMG 0904/0905 20009KT 8000 -RA OVC007 QNH2987INS TX06/0901Z TNM03/0803Z LAST NO AMDS AFT 0804 NEXT 0809
KPTK 
22nm SW 
071720Z 0718/0818 20005KT P6SM OVC100 FM080200 18010KT P6SM OVC150 FM081500 22014G23KT P6SM OVC015
NOTAMs
Click for the latest NOTAMs
NOTAMs are issued by the DoD/FAA and will open in a separate window not controlled by AirNav.

 

 
 

Would you like to see your business listed on this page?

 If your business provides an interesting product or service to pilots, flight crews, aircraft, or users of the Omans Heliport, you should consider listing it here.  To start the listing process, click on the button below
 
Add a business
 

Other Pages about Omans Heliport

Update a link
 
Copyright © AirNav, LLC. All rights reserved. Privacy Policy  Contact